createdAt,value
2022-09-26T00:00:08.692Z,10.56
2022-09-26T00:02:38.888Z,10.58
2022-09-26T00:05:05.851Z,10.59
2022-09-26T00:07:33.342Z,10.61
2022-09-26T00:10:00.263Z,10.62
2022-09-26T00:12:26.907Z,10.65
2022-09-26T00:14:53.763Z,10.68
2022-09-26T00:17:20.370Z,10.70
2022-09-26T00:19:48.041Z,10.72
2022-09-26T00:22:15.299Z,10.73
2022-09-26T00:24:41.903Z,10.75
2022-09-26T00:27:09.053Z,10.77
2022-09-26T00:29:35.940Z,10.79
2022-09-26T00:32:02.739Z,10.81
2022-09-26T00:34:29.437Z,10.84
2022-09-26T00:36:56.532Z,10.86
2022-09-26T00:39:25.978Z,10.88
2022-09-26T00:41:54.473Z,10.86
2022-09-26T00:44:39.585Z,10.84
2022-09-26T00:47:07.258Z,10.82
2022-09-26T00:49:35.627Z,10.83
2022-09-26T00:52:14.465Z,10.82
2022-09-26T00:54:45.447Z,10.79
2022-09-26T00:57:15.317Z,10.74
2022-09-26T00:59:45.955Z,10.71
2022-09-26T01:02:12.678Z,10.69
2022-09-26T01:04:39.974Z,10.66
2022-09-26T01:07:09.481Z,10.63
2022-09-26T01:09:36.617Z,10.63
2022-09-26T01:12:03.395Z,10.65
2022-09-26T01:14:30.233Z,10.65
2022-09-26T01:16:57.088Z,10.62
2022-09-26T01:19:45.587Z,10.58
2022-09-26T01:22:33.282Z,10.55
2022-09-26T01:25:20.093Z,10.53
2022-09-26T01:28:01.578Z,10.52
2022-09-26T01:30:50.666Z,10.51
2022-09-26T01:33:17.318Z,10.47
2022-09-26T01:36:08.437Z,10.44
2022-09-26T01:38:42.542Z,10.44
2022-09-26T01:41:22.253Z,10.45
2022-09-26T01:44:00.828Z,10.45
2022-09-26T01:46:57.659Z,10.44
2022-09-26T01:49:35.141Z,10.41
2022-09-26T01:52:08.024Z,10.41
2022-09-26T01:54:48.068Z,10.39
2022-09-26T01:57:34.001Z,10.38
2022-09-26T02:00:01.754Z,10.37
2022-09-26T02:02:32.705Z,10.37
2022-09-26T02:05:04.118Z,10.38
2022-09-26T02:07:54.893Z,10.38
2022-09-26T02:11:01.420Z,10.38
2022-09-26T02:13:52.347Z,10.39
2022-09-26T02:16:25.759Z,10.37
2022-09-26T02:18:57.070Z,10.35
2022-09-26T02:21:24.476Z,10.36
2022-09-26T02:23:52.375Z,10.35
2022-09-26T02:26:21.389Z,10.34
2022-09-26T02:28:48.064Z,10.32
2022-09-26T02:31:21.380Z,10.29
2022-09-26T02:33:50.168Z,10.27
2022-09-26T02:36:17.690Z,10.27
2022-09-26T02:38:44.359Z,10.26
2022-09-26T02:42:16.418Z,10.26
2022-09-26T02:45:11.271Z,10.24
2022-09-26T02:47:56.846Z,10.23
2022-09-26T02:50:33.444Z,10.23
2022-09-26T02:56:30.131Z,10.25
2022-09-26T02:59:12.040Z,10.23
2022-09-26T03:01:44.182Z,10.23
2022-09-26T03:04:16.417Z,10.22
2022-09-26T03:06:45.714Z,10.20
2022-09-26T03:09:12.749Z,10.19
2022-09-26T03:11:40.535Z,10.17
2022-09-26T03:14:07.783Z,10.16
2022-09-26T03:16:35.047Z,10.16
2022-09-26T03:19:10.867Z,10.14
2022-09-26T03:21:37.643Z,10.12
2022-09-26T03:24:04.626Z,10.12
2022-09-26T03:26:32.485Z,10.12
2022-09-26T03:29:00.455Z,10.13
2022-09-26T03:31:29.104Z,10.13
2022-09-26T03:34:00.854Z,10.12
2022-09-26T03:36:27.867Z,10.11
2022-09-26T03:38:54.721Z,10.09
2022-09-26T03:41:40.001Z,10.09
2022-09-26T03:44:14.141Z,10.09
2022-09-26T03:47:13.536Z,10.10
2022-09-26T03:49:41.740Z,10.11
2022-09-26T03:52:10.696Z,10.13
2022-09-26T03:54:37.607Z,10.15
2022-09-26T03:57:04.415Z,10.16
2022-09-26T03:59:32.691Z,10.17
2022-09-26T04:01:59.882Z,10.18
2022-09-26T04:04:26.807Z,10.18
2022-09-26T04:06:53.619Z,10.20
2022-09-26T04:09:20.958Z,10.22
2022-09-26T04:11:51.149Z,10.23
2022-09-26T04:14:18.441Z,10.24
2022-09-26T04:16:47.686Z,10.23
2022-09-26T04:19:22.750Z,10.23
2022-09-26T04:21:51.041Z,10.21
2022-09-26T04:24:19.609Z,10.19
2022-09-26T04:26:46.897Z,10.19
2022-09-26T04:29:14.015Z,10.17
2022-09-26T04:32:06.311Z,10.16
2022-09-26T04:34:41.729Z,10.15
2022-09-26T04:37:10.203Z,10.16
2022-09-26T04:39:37.016Z,10.17
2022-09-26T04:42:03.726Z,10.17
2022-09-26T04:44:30.434Z,10.18
2022-09-26T04:46:58.131Z,10.19
2022-09-26T04:49:32.615Z,10.21
2022-09-26T04:51:59.297Z,10.21
2022-09-26T04:54:26.346Z,10.22
2022-09-26T04:56:53.871Z,10.23
2022-09-26T04:59:20.564Z,10.23
2022-09-26T05:01:56.365Z,10.23
2022-09-26T05:04:28.058Z,10.24
2022-09-26T05:06:57.918Z,10.24
2022-09-26T05:09:29.239Z,10.25
2022-09-26T05:12:13.301Z,10.25
2022-09-26T05:14:42.128Z,10.26
2022-09-26T05:17:11.011Z,10.28
2022-09-26T05:19:37.792Z,10.31
2022-09-26T05:22:23.216Z,10.34
2022-09-26T05:25:08.664Z,10.36
2022-09-26T05:27:36.147Z,10.35
2022-09-26T05:30:02.941Z,10.35
2022-09-26T05:32:29.775Z,10.35
2022-09-26T05:34:57.029Z,10.34
2022-09-26T05:37:24.252Z,10.35
2022-09-26T05:40:09.527Z,10.35
2022-09-26T05:42:39.620Z,10.34
2022-09-26T05:45:06.580Z,10.36
2022-09-26T05:47:36.207Z,10.38
2022-09-26T05:50:12.605Z,10.40
2022-09-26T05:52:39.687Z,10.43
2022-09-26T05:55:07.553Z,10.46
2022-09-26T05:57:58.523Z,10.49
2022-09-26T06:00:29.208Z,10.53
2022-09-26T06:03:01.278Z,10.56
2022-09-26T06:05:38.748Z,10.58
2022-09-26T06:08:28.223Z,10.60
2022-09-26T06:11:24.979Z,10.64
2022-09-26T06:13:51.921Z,10.67
2022-09-26T06:16:20.209Z,10.71
2022-09-26T06:18:49.198Z,10.75
2022-09-26T06:21:17.336Z,10.78
2022-09-26T06:23:46.768Z,10.80
2022-09-26T06:26:24.678Z,10.84
2022-09-26T06:28:58.217Z,10.87
2022-09-26T06:31:26.537Z,10.89
2022-09-26T06:34:16.531Z,10.90
2022-09-26T06:37:03.568Z,10.91
2022-09-26T06:39:35.727Z,10.92
2022-09-26T06:42:05.721Z,10.91
2022-09-26T06:44:48.430Z,10.89
2022-09-26T06:47:15.206Z,10.89
2022-09-26T06:49:42.319Z,10.90
2022-09-26T06:52:21.873Z,10.92
2022-09-26T06:54:48.599Z,10.92
2022-09-26T06:57:15.513Z,10.93
2022-09-26T06:59:42.371Z,10.94
2022-09-26T07:02:17.680Z,10.95
2022-09-26T07:05:02.941Z,10.96
2022-09-26T07:07:42.266Z,10.97
2022-09-26T07:10:15.206Z,10.99
2022-09-26T07:12:51.297Z,11.01
2022-09-26T07:15:18.911Z,11.04
2022-09-26T07:17:46.932Z,11.07
2022-09-26T07:20:40.028Z,11.10
2022-09-26T07:23:16.425Z,11.11
2022-09-26T07:25:46.843Z,11.12
2022-09-26T07:28:13.642Z,11.12
2022-09-26T07:30:43.768Z,11.13
2022-09-26T07:33:15.840Z,11.14
2022-09-26T07:35:46.155Z,11.15
2022-09-26T07:38:13.262Z,11.17
2022-09-26T07:40:40.628Z,11.18
2022-09-26T07:43:35.834Z,11.21
2022-09-26T07:46:13.451Z,11.22
2022-09-26T07:49:03.051Z,11.26
2022-09-26T07:51:41.716Z,11.30
2022-09-26T07:54:12.817Z,11.34
2022-09-26T07:57:09.008Z,11.39
2022-09-26T07:59:58.963Z,11.44
2022-09-26T08:02:42.667Z,11.51
2022-09-26T08:05:10.952Z,11.56
2022-09-26T08:07:38.122Z,11.63
2022-09-26T08:10:20.158Z,11.69
2022-09-26T08:13:09.859Z,11.77
2022-09-26T08:16:06.298Z,11.85
2022-09-26T08:18:38.008Z,11.90
2022-09-26T08:21:05.810Z,11.94
2022-09-26T08:23:33.374Z,11.99
2022-09-26T08:26:23.999Z,12.03
2022-09-26T08:28:56.572Z,12.08
2022-09-26T08:31:23.412Z,12.11
2022-09-26T08:33:50.213Z,12.14
2022-09-26T08:36:17.007Z,12.18
2022-09-26T08:38:59.495Z,12.21
2022-09-26T08:42:00.989Z,12.27
2022-09-26T08:45:36.481Z,12.34
2022-09-26T08:48:45.073Z,12.43
2022-09-26T08:51:17.705Z,12.48
2022-09-26T08:53:57.053Z,12.53
2022-09-26T08:56:31.878Z,12.58
2022-09-26T08:58:58.893Z,12.65
2022-09-26T09:01:31.134Z,12.71
2022-09-26T09:04:23.568Z,12.79
2022-09-26T09:06:57.783Z,12.86
2022-09-26T09:09:25.078Z,12.93
2022-09-26T09:12:23.561Z,13.01
2022-09-26T09:15:31.998Z,13.07
2022-09-26T09:18:29.201Z,13.15
2022-09-26T09:22:05.312Z,13.22
2022-09-26T09:25:00.339Z,13.29
2022-09-26T09:28:07.237Z,13.34
2022-09-26T09:30:38.311Z,13.38
2022-09-26T09:33:31.681Z,13.44
2022-09-26T09:36:18.335Z,13.49
2022-09-26T09:39:11.019Z,13.54
2022-09-26T09:41:50.630Z,13.59
2022-09-26T09:44:32.116Z,13.65
2022-09-26T09:46:58.993Z,13.73
2022-09-26T09:49:26.949Z,13.79
2022-09-26T09:52:24.492Z,13.87
2022-09-26T09:55:32.372Z,13.98
2022-09-26T09:58:18.154Z,14.11
2022-09-26T10:00:51.323Z,14.22
2022-09-26T10:03:32.927Z,14.32
2022-09-26T10:06:00.963Z,14.42
2022-09-26T10:08:37.578Z,14.52
2022-09-26T10:11:42.669Z,14.64
2022-09-26T10:14:55.006Z,14.74
2022-09-26T10:18:00.819Z,14.85
2022-09-26T10:20:41.368Z,14.95
2022-09-26T10:23:11.977Z,15.01
2022-09-26T10:25:38.691Z,15.06
2022-09-26T10:28:05.480Z,15.09
2022-09-26T10:30:33.648Z,15.12
2022-09-26T10:33:04.701Z,15.19
2022-09-26T10:35:43.123Z,15.27
2022-09-26T10:38:23.419Z,15.35
2022-09-26T10:41:10.482Z,15.43
2022-09-26T10:43:37.978Z,15.52
2022-09-26T10:46:19.348Z,15.63
2022-09-26T10:49:05.672Z,15.74
2022-09-26T10:52:19.131Z,15.86
2022-09-26T10:54:49.294Z,16.00
2022-09-26T10:57:25.004Z,16.09
2022-09-26T10:59:53.187Z,16.19
2022-09-26T11:02:22.892Z,16.28
2022-09-26T11:05:10.421Z,16.34
2022-09-26T11:07:44.310Z,16.41
2022-09-26T11:10:27.522Z,16.44
2022-09-26T11:13:19.555Z,16.48
2022-09-26T11:16:01.262Z,16.52
2022-09-26T11:18:50.204Z,16.54
2022-09-26T11:21:29.446Z,16.56
2022-09-26T11:24:11.689Z,16.58
2022-09-26T11:26:49.427Z,16.63
2022-09-26T11:29:47.166Z,16.69
2022-09-26T11:32:17.758Z,16.76
2022-09-26T11:35:18.564Z,16.83
2022-09-26T11:38:27.445Z,16.89
2022-09-26T11:41:07.390Z,16.94
2022-09-26T11:43:47.623Z,16.98
2022-09-26T11:46:35.604Z,17.01
2022-09-26T11:49:34.645Z,17.02
2022-09-26T11:52:48.243Z,17.01
2022-09-26T11:55:38.279Z,17.00
2022-09-26T11:58:33.332Z,16.97
2022-09-26T12:01:23.414Z,16.94
2022-09-26T12:04:03.364Z,16.91
2022-09-26T12:06:33.552Z,16.88
2022-09-26T12:09:39.080Z,16.85
2022-09-26T12:12:09.621Z,16.83
2022-09-26T12:14:56.163Z,16.80
2022-09-26T12:17:23.102Z,16.79
2022-09-26T12:20:14.073Z,16.78
2022-09-26T12:22:46.528Z,16.76
2022-09-26T12:25:36.146Z,16.74
2022-09-26T12:28:31.801Z,16.71
2022-09-26T12:31:08.794Z,16.69
2022-09-26T12:33:49.169Z,16.67
2022-09-26T12:36:40.438Z,16.65
2022-09-26T12:39:43.023Z,16.63
2022-09-26T12:42:37.990Z,16.60
2022-09-26T12:45:23.256Z,16.58
2022-09-26T12:48:05.392Z,16.57
2022-09-26T12:50:58.267Z,16.55
2022-09-26T12:53:28.352Z,16.52
2022-09-26T12:56:08.969Z,16.50
2022-09-26T12:58:35.614Z,16.47
2022-09-26T13:01:20.144Z,16.45
2022-09-26T13:04:24.424Z,16.42
2022-09-26T13:07:21.273Z,16.40
2022-09-26T13:09:57.582Z,16.38
2022-09-26T13:12:55.656Z,16.39
2022-09-26T13:15:24.443Z,16.39
2022-09-26T13:17:54.534Z,16.38
2022-09-26T13:20:29.757Z,16.36
2022-09-26T13:23:06.056Z,16.34
2022-09-26T13:25:49.863Z,16.31
2022-09-26T13:28:24.227Z,16.30
2022-09-26T13:30:53.703Z,16.30
2022-09-26T13:33:42.889Z,16.28
2022-09-26T13:36:09.783Z,16.25
2022-09-26T13:39:06.884Z,16.22
2022-09-26T13:41:48.513Z,16.18
2022-09-26T13:44:18.168Z,16.13
2022-09-26T13:46:53.788Z,16.09
2022-09-26T13:49:45.310Z,16.04
2022-09-26T13:52:15.038Z,16.00
2022-09-26T13:55:04.119Z,15.97
2022-09-26T13:58:00.906Z,15.94
2022-09-26T14:00:31.332Z,15.90
2022-09-26T14:03:10.286Z,15.86
2022-09-26T14:05:43.781Z,15.81
2022-09-26T14:08:44.764Z,15.77
2022-09-26T14:11:49.634Z,15.72
2022-09-26T14:14:16.829Z,15.68
2022-09-26T14:16:47.347Z,15.65
2022-09-26T14:19:26.966Z,15.61
2022-09-26T14:22:05.749Z,15.58
2022-09-26T14:24:37.297Z,15.53
2022-09-26T14:27:07.073Z,15.51
2022-09-26T14:29:44.646Z,15.49
2022-09-26T14:32:15.196Z,15.48
2022-09-26T14:34:44.671Z,15.46
2022-09-26T14:37:24.047Z,15.45
2022-09-26T14:39:52.529Z,15.43
2022-09-26T14:42:25.485Z,15.39
2022-09-26T14:45:00.854Z,15.37
2022-09-26T14:47:29.219Z,15.34
2022-09-26T14:50:01.860Z,15.31
2022-09-26T14:52:28.620Z,15.27
2022-09-26T14:55:01.093Z,15.22
2022-09-26T14:57:31.626Z,15.17
2022-09-26T14:59:59.548Z,15.11
2022-09-26T15:02:34.767Z,15.05
2022-09-26T15:05:06.680Z,15.00
2022-09-26T15:07:41.359Z,14.95
2022-09-26T15:10:14.021Z,14.90
2022-09-26T15:13:45.438Z,14.86
2022-09-26T15:16:21.352Z,14.79
2022-09-26T15:18:51.075Z,14.76
2022-09-26T15:21:28.256Z,14.73
2022-09-26T15:23:56.562Z,14.71
2022-09-26T15:26:27.629Z,14.67
2022-09-26T15:28:54.782Z,14.63
2022-09-26T15:31:22.977Z,14.60
2022-09-26T15:34:00.357Z,14.57
2022-09-26T15:36:36.332Z,14.55
2022-09-26T15:39:27.285Z,14.53
2022-09-26T15:42:12.495Z,14.50
2022-09-26T15:44:48.151Z,14.48
2022-09-26T15:47:38.248Z,14.46
2022-09-26T15:50:12.343Z,14.43
2022-09-26T15:52:41.098Z,14.41
2022-09-26T15:55:09.583Z,14.39
2022-09-26T15:57:36.317Z,14.36
2022-09-26T16:00:03.518Z,14.35
2022-09-26T16:02:32.641Z,14.32
2022-09-26T16:04:59.508Z,14.30
2022-09-26T16:07:27.043Z,14.28
2022-09-26T16:09:53.829Z,14.26
2022-09-26T16:12:24.814Z,14.23
2022-09-26T16:14:58.759Z,14.21
2022-09-26T16:17:32.377Z,14.19
2022-09-26T16:20:03.993Z,14.16
2022-09-26T16:22:36.862Z,14.14
2022-09-26T16:25:15.825Z,14.12
2022-09-26T16:27:42.867Z,14.11
2022-09-26T16:30:33.596Z,14.08
2022-09-26T16:33:02.953Z,14.06
2022-09-26T16:35:30.809Z,14.06
2022-09-26T16:38:18.971Z,14.05
2022-09-26T16:40:55.954Z,14.05
2022-09-26T16:43:31.693Z,14.04
2022-09-26T16:46:09.666Z,14.04
2022-09-26T16:48:41.420Z,14.02
2022-09-26T16:51:15.510Z,14.01
2022-09-26T16:53:46.201Z,14.00
2022-09-26T16:56:17.550Z,13.99
2022-09-26T16:59:01.281Z,13.98
2022-09-26T17:01:46.800Z,13.96
2022-09-26T17:04:18.552Z,13.95
2022-09-26T17:06:46.353Z,13.92
2022-09-26T17:09:21.362Z,13.87
2022-09-26T17:11:52.622Z,13.83
2022-09-26T17:14:23.073Z,13.79
2022-09-26T17:16:55.081Z,13.77
2022-09-26T17:19:23.396Z,13.74
2022-09-26T17:21:50.941Z,13.71
2022-09-26T17:24:25.053Z,13.69
2022-09-26T17:27:01.768Z,13.67
2022-09-26T17:29:39.694Z,13.65
2022-09-26T17:32:11.113Z,13.62
2022-09-26T17:34:37.986Z,13.57
2022-09-26T17:37:04.854Z,13.53
2022-09-26T17:39:31.661Z,13.50
2022-09-26T17:42:00.024Z,13.49
2022-09-26T17:44:26.901Z,13.45
2022-09-26T17:46:55.901Z,13.43
2022-09-26T17:49:24.539Z,13.40
2022-09-26T17:51:54.179Z,13.37
2022-09-26T17:54:21.011Z,13.32
2022-09-26T17:56:48.585Z,13.28
2022-09-26T17:59:22.860Z,13.23
2022-09-26T18:01:55.018Z,13.21
2022-09-26T18:04:22.360Z,13.19
2022-09-26T18:06:49.182Z,13.17
2022-09-26T18:09:16.890Z,13.15
2022-09-26T18:11:54.395Z,13.12
2022-09-26T18:14:21.230Z,13.10
2022-09-26T18:16:48.135Z,13.09
2022-09-26T18:19:14.985Z,13.10
2022-09-26T18:21:41.824Z,13.13
2022-09-26T18:24:18.633Z,13.12
2022-09-26T18:26:50.968Z,13.09
2022-09-26T18:29:23.187Z,13.06
2022-09-26T18:31:50.002Z,13.02
2022-09-26T18:34:20.054Z,12.99
2022-09-26T18:36:47.861Z,12.96
2022-09-26T18:39:14.791Z,12.93
2022-09-26T18:41:41.872Z,12.89
2022-09-26T18:44:16.685Z,12.82
2022-09-26T18:46:46.309Z,12.78
2022-09-26T18:49:13.265Z,12.76
2022-09-26T18:51:40.158Z,12.75
2022-09-26T18:54:14.318Z,12.74
2022-09-26T18:57:00.096Z,12.72
2022-09-26T18:59:29.213Z,12.71
2022-09-26T19:01:56.425Z,12.68
2022-09-26T19:04:23.595Z,12.64
2022-09-26T19:07:01.163Z,12.61
2022-09-26T19:09:33.089Z,12.56
2022-09-26T19:12:00.689Z,12.52
2022-09-26T19:14:28.815Z,12.50
2022-09-26T19:16:55.941Z,12.47
2022-09-26T19:19:23.057Z,12.44
2022-09-26T19:22:13.045Z,12.41
2022-09-26T19:24:50.358Z,12.38
2022-09-26T19:27:38.556Z,12.34
2022-09-26T19:30:16.246Z,12.32
2022-09-26T19:32:44.749Z,12.30
2022-09-26T19:35:24.979Z,12.28
2022-09-26T19:37:52.040Z,12.27
2022-09-26T19:40:19.895Z,12.25
2022-09-26T19:42:46.772Z,12.23
2022-09-26T19:45:13.886Z,12.23
2022-09-26T19:47:43.369Z,12.22
2022-09-26T19:50:15.686Z,12.22
2022-09-26T19:52:42.591Z,12.22
2022-09-26T19:55:17.834Z,12.20
2022-09-26T19:57:44.706Z,12.19
2022-09-26T20:00:12.384Z,12.19
2022-09-26T20:02:39.365Z,12.18
2022-09-26T20:05:20.638Z,12.19
2022-09-26T20:07:47.484Z,12.19
2022-09-26T20:10:18.193Z,12.19
2022-09-26T20:12:45.229Z,12.19
2022-09-26T20:15:13.268Z,12.19
2022-09-26T20:17:44.506Z,12.20
2022-09-26T20:20:24.458Z,12.20
2022-09-26T20:22:51.633Z,12.20
2022-09-26T20:25:36.646Z,12.19
2022-09-26T20:28:03.392Z,12.19
2022-09-26T20:30:48.757Z,12.19
2022-09-26T20:33:15.586Z,12.17
2022-09-26T20:35:46.228Z,12.16
2022-09-26T20:38:33.867Z,12.14
2022-09-26T20:41:02.340Z,12.12
2022-09-26T20:43:33.884Z,12.08
2022-09-26T20:46:08.681Z,12.05
2022-09-26T20:48:35.702Z,12.06
2022-09-26T20:51:02.855Z,12.06
2022-09-26T20:53:29.575Z,12.07
2022-09-26T20:55:56.215Z,12.07
2022-09-26T20:58:23.084Z,12.07
2022-09-26T21:00:49.868Z,12.07
2022-09-26T21:03:17.301Z,12.09
2022-09-26T21:05:44.060Z,12.11
2022-09-26T21:08:37.162Z,12.11
2022-09-26T21:11:03.846Z,12.12
2022-09-26T21:13:30.437Z,12.12
2022-09-26T21:15:57.124Z,12.11
2022-09-26T21:18:24.772Z,12.10
2022-09-26T21:20:52.042Z,12.11
2022-09-26T21:23:30.623Z,12.11
2022-09-26T21:25:57.232Z,12.11
2022-09-26T21:28:27.886Z,12.10
2022-09-26T21:31:05.442Z,12.09
2022-09-26T21:33:32.215Z,12.07
2022-09-26T21:35:58.829Z,12.06
2022-09-26T21:38:25.608Z,12.04
2022-09-26T21:40:54.467Z,12.02
2022-09-26T21:43:22.887Z,11.99
2022-09-26T21:45:49.691Z,11.98
2022-09-26T21:48:16.509Z,11.96
2022-09-26T21:50:58.149Z,11.94
2022-09-26T21:53:31.196Z,11.94
2022-09-26T21:56:03.772Z,11.93
2022-09-26T21:58:35.607Z,11.94
2022-09-26T22:01:02.364Z,11.95
2022-09-26T22:03:29.099Z,11.97
2022-09-26T22:05:55.690Z,11.97
2022-09-26T22:08:22.342Z,11.98
2022-09-26T22:10:52.074Z,11.98
2022-09-26T22:13:18.739Z,11.98
2022-09-26T22:15:45.336Z,11.96
2022-09-26T22:18:11.999Z,11.97
2022-09-26T22:20:38.610Z,11.96
2022-09-26T22:23:05.281Z,11.97
2022-09-26T22:25:32.084Z,11.96
2022-09-26T22:27:58.753Z,11.96
2022-09-26T22:30:25.458Z,11.95
2022-09-26T22:32:52.176Z,11.95
2022-09-26T22:35:18.805Z,11.94
2022-09-26T22:37:45.496Z,11.93
2022-09-26T22:40:12.271Z,11.92
2022-09-26T22:42:39.016Z,11.89
2022-09-26T22:45:05.776Z,11.87
2022-09-26T22:47:32.469Z,11.85
2022-09-26T22:49:59.058Z,11.83
2022-09-26T22:52:25.726Z,11.81
2022-09-26T22:54:52.337Z,11.78
2022-09-26T22:57:19.083Z,11.77
2022-09-26T22:59:45.783Z,11.75
2022-09-26T23:02:12.490Z,11.75
2022-09-26T23:04:48.302Z,11.73
2022-09-26T23:07:17.509Z,11.72
2022-09-26T23:09:44.207Z,11.70
2022-09-26T23:12:10.967Z,11.69
2022-09-26T23:14:37.659Z,11.69
2022-09-26T23:17:04.365Z,11.68
2022-09-26T23:19:31.509Z,11.65
2022-09-26T23:21:58.287Z,11.62
2022-09-26T23:24:24.948Z,11.61
2022-09-26T23:26:51.628Z,11.60
2022-09-26T23:29:18.206Z,11.60
2022-09-26T23:31:44.902Z,11.61
2022-09-26T23:34:12.213Z,11.61
2022-09-26T23:36:38.900Z,11.61
2022-09-26T23:39:09.033Z,11.60
2022-09-26T23:41:36.186Z,11.59
2022-09-26T23:44:02.864Z,11.58
2022-09-26T23:46:29.506Z,11.58
2022-09-26T23:48:56.220Z,11.58
2022-09-26T23:51:22.871Z,11.60
2022-09-26T23:53:49.607Z,11.62
2022-09-26T23:56:16.974Z,11.62
2022-09-26T23:58:43.771Z,11.61
